Relevés horaires Beauvechain (Belgique)


Relevés horaires à Beauvechain - Dimanche 02 Juill. 2017
Heure UTC1 Température [°C] Vent [km/h] Hum. [%] Pres.4 [hPa] Visi. [Km] Nébu. [octa] Préc.5 [mm] Cond.
2m. Res. Ros. Dir.2 Vit. Moy. Raf.3
23:00 12.6 12.6 8.9 NNO 1.9 -- 3.7 78 1024(0.6/3h) 20 -- -- --
22:00 12.8 12.8 8.7 NNO 1.9 -- 5.6 76 1024(1.2/3h) 20 -- -- --
21:00 13.6 13.6 8.5 NNO 3.7 -- 11.1 71 1023.7(1.3/3h) 20 -- -- --
20:00 14.3 14.3 8.9 NNO 1.9 -- 9.3 70 1023.2(1.4/3h) 20 -- -- --
19:00 16.1 16.1 9.0 NO 5.6 -- 11.1 63 1022.7(1.0/3h) 20 -- -- --
18:00 17.5 17.5 10.8 NO 7.4 -- 14.8 65 1022.1(1.0/3h) 20 -- 0.5/12h
NA
17:00 18.3 18.3 12.4 NO 9.3 -- 14.8 68 1021.6(0.7/3h) 20 -- -- --
16:00 18.7 18.7 14.0 NO 7.4 -- 14.8 74 1021.5(0.6/3h) 20 -- -- --
15:00 18.5 18.5 14.7 NO 7.4 -- 14.8 79 1021(0.6/3h) 20 -- -- NA
14:00 18.3 18.3 15.7 O 3.7 -- 9.3 85 1020.7(0.7/3h) 19 -- -- NA
13:00 16.1 16.1 15.5 O 5.6 -- 9.3 96 1020.8(1.0/3h) 20 -- -- Il y a une bruine faible et continue à la station au moment de l'observation
12:00 15.6 15.6 15.1 SO 5.6 -- 13.0 97 1020.5(1.0/3h) 5 -- 0.1/6h
Il y a une bruine faible et continue à la station au moment de l'observation
11:00 16.6 16.6 13.8 SO 7.4 -- 13.0 84 1020.1(0.8/3h) 20 -- -- --
10:00 16.7 16.7 13.5 SO 9.3 -- 13.0 81 1019.8(0.9/3h) 20 -- -- --
09:00 16.3 16.3 13.8 SO 7.4 9.3 13.0 85 1019.5(0.8/3h) 20 -- -- --
08:00 15.4 15.2 13.4 SO 9.3 -- 13.0 88 1019.2(1.0/3h) 15 -- -- --
07:00 14.8 14.8 13.2 SO 5.6 -- 13.0 90 1018.8(0.8/3h) 18 -- -- --
06:00 14.1 13.9 12.6 SO 7.4 -- 13.0 91 1018.7(0.4/3h) 19 -- -- --
05:00 13.8 13.6 12.6 SO 7.4 -- 11.1 92 1018.2(0.0/3h) 17 -- -- --
04:00 13.6 13.3 12.5 SO 7.4 -- 11.1 93 1018.2(-0.2/3h) 15 -- -- --
03:00 13.6 13.6 12.1 SO 5.6 7.4 9.3 91 1018.2(-0.3/3h) 18 -- -- --
02:00 13.6 13.6 11.6 SO 5.6 -- 9.3 88 1018.2(-0.2/3h) 20 -- -- --
01:00 13.4 13.4 11.3 SSO 5.6 -- 5.6 87 1018.3(0.0/3h) 20 -- -- --
00:00 13.5 13.5 12.1 SSO 5.6 -- 9.3 91 1018.6(0.6/3h) 17 -- -- --

1 Coordinated Universal Time. Actuellement il est 15:00 locale et 14:00 UTC.

2 Le vent souffle depuis la direction indiquée vers la direction oposée.

3 Les rafales max. sont disponible 40 min après l'heure du relevé.

4 Pour les stations d'altitude (plus de 600m) le géopotentiel du niveau le plus proche de la pression obligatoire est indiqué.

5 Les stations disposant d'un diffuseur peuvent indiquer "trace". Cela signifie que des précipitations ont touchés le sol mais que la quantité est inférieure à 0.1 mm.

Récapitulatif de la journée
Température [°C] Vent [km/h] Ensoleillement4 [h] Precipitations totale5 [mm] Pression [Hpa]
Min1 Max.2 Moy.3 Max. Min Max.
13.1 19.4 8.4 14.8 0 h 0 min 0 1018.2 1024.0

1 Température minimale relevée entre 18:00 UTC la veille et 18:00 UTC le jour donné.

2 Température maximale relevée entre 06:00 UTC le jour donné et 06:00 UTC le lendemain.

3 Vent moyen de la journée basé sur les relevés horaires.

4 Ensoleillement en heures relevé entre 06:00 UTC la veille et 06:00 UTC le jour donné.

5 Précipitations totales tombées entre 06:00 UTC la jour donné et 06:00 UTC le lendemain.

Graphiques horaires